createdAt,value
2023-09-10T00:00:00.404Z,69.03
2023-09-10T00:02:28.252Z,50.20
2023-09-10T00:04:56.996Z,52.90
2023-09-10T00:07:26.324Z,52.72
2023-09-10T00:09:54.262Z,60.10
2023-09-10T00:12:22.146Z,57.03
2023-09-10T00:14:50.010Z,60.78
2023-09-10T00:17:17.911Z,59.80
2023-09-10T00:19:45.799Z,62.55
2023-09-10T00:22:13.693Z,93.43
2023-09-10T00:24:42.948Z,111.25
2023-09-10T00:27:11.375Z,83.13
2023-09-10T00:29:39.344Z,69.85
2023-09-10T00:32:07.333Z,64.60
2023-09-10T00:34:35.635Z,63.63
2023-09-10T00:37:03.709Z,64.72
2023-09-10T00:39:31.574Z,60.72
2023-09-10T00:42:00.785Z,61.78
2023-09-10T00:44:28.699Z,65.25
2023-09-10T00:46:57.861Z,64.57
2023-09-10T00:49:26.014Z,61.13
2023-09-10T00:51:54.135Z,53.00
2023-09-10T00:54:25.275Z,50.58
2023-09-10T00:56:53.629Z,50.67
2023-09-10T00:59:23.137Z,50.70
2023-09-10T01:01:51.354Z,106.50
2023-09-10T01:04:23.181Z,100.47
2023-09-10T01:06:52.596Z,62.47
2023-09-10T01:09:22.881Z,51.83
2023-09-10T01:12:06.271Z,45.47
2023-09-10T01:14:43.176Z,46.97
2023-09-10T01:17:19.735Z,44.88
2023-09-10T01:20:24.961Z,44.67
2023-09-10T01:23:05.035Z,42.20
2023-09-10T01:25:35.365Z,44.88
2023-09-10T01:28:05.780Z,44.08
2023-09-10T01:30:35.308Z,45.67
2023-09-10T01:33:12.846Z,48.50
2023-09-10T01:35:49.801Z,48.22
2023-09-10T01:38:27.609Z,49.30
2023-09-10T01:41:05.318Z,53.67
2023-09-10T01:43:35.613Z,106.78
2023-09-10T01:46:06.332Z,63.40
2023-09-10T01:48:35.060Z,51.83
2023-09-10T01:51:03.509Z,51.08
2023-09-10T01:53:31.456Z,64.75
2023-09-10T01:56:00.742Z,53.72
2023-09-10T01:58:28.621Z,55.20
2023-09-10T02:00:56.558Z,57.47
2023-09-10T02:03:24.506Z,52.33
2023-09-10T02:05:52.441Z,50.53
2023-09-10T02:08:20.476Z,57.83
2023-09-10T02:10:48.435Z,52.47
2023-09-10T02:13:17.611Z,51.72
2023-09-10T02:15:45.449Z,51.28
2023-09-10T02:18:13.366Z,53.83
2023-09-10T02:20:41.353Z,49.50
2023-09-10T02:23:09.844Z,47.00
2023-09-10T02:25:39.821Z,46.58
2023-09-10T02:28:09.477Z,52.40
2023-09-10T02:30:38.806Z,55.53
2023-09-10T02:33:07.759Z,56.45
2023-09-10T02:35:35.847Z,60.70
2023-09-10T02:38:05.544Z,65.40
2023-09-10T02:40:33.565Z,57.60
2023-09-10T02:43:01.374Z,62.70
2023-09-10T02:45:29.256Z,55.25
2023-09-10T02:47:58.574Z,59.67
2023-09-10T02:50:26.446Z,66.05
2023-09-10T02:52:54.337Z,64.70
2023-09-10T02:55:23.182Z,68.13
2023-09-10T02:57:51.138Z,67.38
2023-09-10T03:00:23.276Z,75.05
2023-09-10T03:02:53.030Z,84.15
2023-09-10T03:05:22.478Z,90.85
2023-09-10T03:07:53.296Z,79.18
2023-09-10T03:10:21.535Z,68.72
2023-09-10T03:12:49.581Z,70.03
2023-09-10T03:15:17.874Z,82.38
2023-09-10T03:17:45.830Z,83.53
2023-09-10T03:20:13.877Z,71.43
2023-09-10T03:22:43.390Z,75.28
2023-09-10T03:25:11.820Z,65.03
2023-09-10T03:27:39.776Z,67.50
2023-09-10T03:30:09.218Z,75.93
2023-09-10T03:32:37.378Z,74.85
2023-09-10T03:35:07.313Z,67.85
2023-09-10T03:37:35.388Z,73.57
2023-09-10T03:40:07.080Z,70.22
2023-09-10T03:42:35.167Z,70.80
2023-09-10T03:45:03.597Z,76.30
2023-09-10T03:47:34.911Z,76.68
2023-09-10T03:50:03.034Z,86.43
2023-09-10T03:52:31.300Z,76.32
2023-09-10T03:54:59.284Z,79.43
2023-09-10T03:57:28.868Z,78.00
2023-09-10T03:59:56.744Z,91.88
2023-09-10T04:02:25.884Z,104.07
2023-09-10T04:04:53.951Z,102.47
2023-09-10T04:07:21.871Z,95.35
2023-09-10T04:09:49.721Z,82.50
2023-09-10T04:12:17.668Z,97.30
2023-09-10T04:14:47.200Z,91.30
2023-09-10T04:17:17.523Z,91.10
2023-09-10T04:19:45.902Z,80.70
2023-09-10T04:22:15.469Z,84.25
2023-09-10T04:24:43.464Z,91.28
2023-09-10T04:27:11.344Z,104.43
2023-09-10T04:29:39.470Z,113.43
2023-09-10T04:32:08.950Z,102.88
2023-09-10T04:34:37.212Z,101.35
2023-09-10T04:37:05.619Z,118.78
2023-09-10T04:39:33.820Z,108.40
2023-09-10T04:42:03.815Z,94.68
2023-09-10T04:44:32.023Z,94.95
2023-09-10T04:46:59.990Z,115.38
2023-09-10T04:49:29.231Z,110.55
2023-09-10T04:51:57.262Z,96.25
2023-09-10T04:54:25.301Z,110.43
2023-09-10T04:56:55.951Z,100.35
2023-09-10T04:59:25.097Z,110.20
2023-09-10T05:01:53.284Z,95.57
2023-09-10T05:04:22.039Z,109.30
2023-09-10T05:06:51.515Z,84.05
2023-09-10T05:09:19.484Z,76.65
2023-09-10T05:11:47.548Z,78.60
2023-09-10T05:14:17.142Z,83.18
2023-09-10T05:16:45.232Z,83.75
2023-09-10T05:19:13.324Z,80.10
2023-09-10T05:21:41.255Z,92.88
2023-09-10T05:24:10.506Z,88.47
2023-09-10T05:26:39.239Z,101.22
2023-09-10T05:29:07.731Z,86.22
2023-09-10T05:31:35.782Z,72.13
2023-09-10T05:34:05.047Z,86.88
2023-09-10T05:36:33.031Z,76.00
2023-09-10T05:39:00.985Z,65.55
2023-09-10T05:41:30.679Z,58.97
2023-09-10T05:43:58.784Z,57.70
2023-09-10T05:46:27.534Z,58.40
2023-09-10T05:48:55.446Z,54.72
2023-09-10T05:51:23.340Z,58.85
2023-09-10T05:53:51.343Z,56.42
2023-09-10T05:56:19.728Z,48.38
2023-09-10T05:58:49.580Z,49.50
2023-09-10T06:01:17.677Z,52.65
2023-09-10T06:03:45.614Z,46.22
2023-09-10T06:06:13.884Z,42.75
2023-09-10T06:08:42.022Z,40.22
2023-09-10T06:11:09.951Z,38.75
2023-09-10T06:13:38.377Z,39.63
2023-09-10T06:16:08.221Z,37.28
2023-09-10T06:18:36.598Z,40.35
2023-09-10T06:21:04.783Z,39.47
2023-09-10T06:23:32.826Z,40.30
2023-09-10T06:26:00.864Z,42.92
2023-09-10T06:28:29.258Z,38.83
2023-09-10T06:30:57.819Z,41.60
2023-09-10T06:33:27.673Z,41.92
2023-09-10T06:35:56.427Z,40.05
2023-09-10T06:38:24.732Z,40.95
2023-09-10T06:40:52.864Z,44.13
2023-09-10T06:43:21.236Z,43.28
2023-09-10T06:46:02.871Z,43.88
2023-09-10T06:48:33.385Z,42.00
2023-09-10T06:51:02.421Z,40.30
2023-09-10T06:53:31.447Z,41.80
2023-09-10T06:56:00.004Z,40.80
2023-09-10T06:58:30.916Z,39.78
2023-09-10T07:01:05.012Z,40.20
2023-09-10T07:03:35.912Z,41.70
2023-09-10T07:06:05.364Z,38.97
2023-09-10T07:08:37.718Z,39.90
2023-09-10T07:11:06.156Z,37.53
2023-09-10T07:13:35.286Z,37.47
2023-09-10T07:16:03.522Z,35.83
2023-09-10T07:18:34.267Z,35.17
2023-09-10T07:21:04.214Z,36.88
2023-09-10T07:23:32.040Z,37.47
2023-09-10T07:26:00.021Z,37.13
2023-09-10T07:28:27.945Z,36.30
2023-09-10T07:30:55.865Z,35.78
2023-09-10T07:33:23.899Z,34.58
2023-09-10T07:35:51.820Z,33.58
2023-09-10T07:38:21.829Z,35.40
2023-09-10T07:40:49.948Z,33.95
2023-09-10T07:43:17.836Z,34.60
2023-09-10T07:45:49.228Z,31.10
2023-09-10T07:48:17.412Z,34.25
2023-09-10T07:50:54.998Z,30.27
2023-09-10T07:53:25.573Z,30.45
2023-09-10T07:55:53.871Z,31.23
2023-09-10T07:58:21.861Z,29.88
2023-09-10T08:00:54.682Z,27.80
2023-09-10T08:03:22.876Z,26.67
2023-09-10T08:05:51.106Z,27.08
2023-09-10T08:08:19.564Z,28.50
2023-09-10T08:10:49.172Z,27.52
2023-09-10T08:13:17.106Z,26.98
2023-09-10T08:15:45.119Z,26.13
2023-09-10T08:18:13.887Z,26.30
2023-09-10T08:20:43.769Z,26.75
2023-09-10T08:23:12.213Z,27.13
2023-09-10T08:25:40.638Z,27.48
2023-09-10T08:28:09.973Z,25.88
2023-09-10T08:30:37.951Z,26.85
2023-09-10T08:33:06.037Z,26.05
2023-09-10T08:35:47.070Z,27.08
2023-09-10T08:38:15.885Z,29.33
2023-09-10T08:40:56.921Z,27.52
2023-09-10T08:43:40.355Z,28.50
2023-09-10T08:46:11.357Z,26.95
2023-09-10T08:48:44.928Z,27.60
2023-09-10T08:51:14.090Z,26.63
2023-09-10T08:53:44.704Z,28.27
2023-09-10T08:56:14.030Z,25.35
2023-09-10T08:58:45.415Z,26.90
2023-09-10T09:01:15.260Z,26.75
2023-09-10T09:03:43.765Z,25.85
2023-09-10T09:06:12.063Z,25.52
2023-09-10T09:08:44.863Z,25.48
2023-09-10T09:11:15.475Z,25.13
2023-09-10T09:13:50.646Z,26.15
2023-09-10T09:16:21.714Z,22.95
2023-09-10T09:18:51.625Z,23.25
2023-09-10T09:21:22.364Z,23.75
2023-09-10T09:23:58.700Z,22.98
2023-09-10T09:26:28.820Z,23.02
2023-09-10T09:28:58.538Z,24.27
2023-09-10T09:31:27.031Z,23.38
2023-09-10T09:33:55.135Z,22.25
2023-09-10T09:36:33.654Z,21.52
2023-09-10T09:39:04.342Z,22.45
2023-09-10T09:41:36.099Z,22.58
2023-09-10T09:44:06.529Z,22.45
2023-09-10T09:46:35.290Z,20.23
2023-09-10T09:49:03.498Z,21.35
2023-09-10T09:51:31.881Z,20.48
2023-09-10T09:54:01.502Z,20.38
2023-09-10T09:56:30.341Z,19.02
2023-09-10T09:58:59.534Z,18.83
2023-09-10T10:01:28.782Z,18.65
2023-09-10T10:03:59.074Z,18.15
2023-09-10T10:06:27.510Z,18.83
2023-09-10T10:08:56.176Z,17.67
2023-09-10T10:11:31.037Z,17.92
2023-09-10T10:14:02.225Z,15.65
2023-09-10T10:16:34.649Z,15.13
2023-09-10T10:19:05.209Z,19.40
2023-09-10T10:21:33.921Z,17.02
2023-09-10T10:24:04.203Z,15.02
2023-09-10T10:26:34.822Z,15.48
2023-09-10T10:29:04.102Z,15.50
2023-09-10T10:31:40.647Z,11.10
2023-09-10T10:34:15.885Z,12.27
2023-09-10T10:36:58.447Z,11.48
2023-09-10T10:39:39.372Z,13.15
2023-09-10T10:42:11.795Z,14.02
2023-09-10T10:44:40.779Z,14.07
2023-09-10T10:47:18.628Z,15.32
2023-09-10T10:49:53.693Z,14.13
2023-09-10T10:52:30.312Z,12.70
2023-09-10T10:54:59.805Z,14.30
2023-09-10T10:57:30.062Z,14.35
2023-09-10T10:59:59.089Z,12.27
2023-09-10T11:02:28.777Z,12.32
2023-09-10T11:05:00.293Z,12.32
2023-09-10T11:07:30.573Z,15.40
2023-09-10T11:10:00.019Z,13.13
2023-09-10T11:12:28.694Z,12.68
2023-09-10T11:15:11.616Z,13.70
2023-09-10T11:17:41.232Z,11.73
2023-09-10T11:20:09.801Z,12.23
2023-09-10T11:23:07.741Z,15.10
2023-09-10T11:25:35.989Z,10.95
2023-09-10T11:28:04.390Z,12.63
2023-09-10T11:30:32.408Z,10.90
2023-09-10T11:33:32.289Z,10.35
2023-09-10T11:36:00.540Z,12.77
2023-09-10T11:38:31.426Z,11.90
2023-09-10T11:41:00.171Z,12.50
2023-09-10T11:43:30.455Z,13.68
2023-09-10T11:45:58.486Z,15.02
2023-09-10T11:48:30.054Z,10.98
2023-09-10T11:51:00.380Z,12.60
2023-09-10T11:53:30.198Z,13.13
2023-09-10T11:55:59.218Z,11.52
2023-09-10T11:58:27.585Z,15.55
2023-09-10T12:00:55.444Z,15.27
2023-09-10T12:03:23.519Z,13.32
2023-09-10T12:05:51.692Z,16.67
2023-09-10T12:08:21.075Z,17.20
2023-09-10T12:10:49.632Z,11.60
2023-09-10T12:13:17.881Z,14.13
2023-09-10T12:15:46.310Z,15.95
2023-09-10T12:18:14.567Z,13.90
2023-09-10T12:20:42.698Z,19.08
2023-09-10T12:23:10.735Z,15.43
2023-09-10T12:25:40.421Z,15.43
2023-09-10T12:28:08.517Z,19.73
2023-09-10T12:30:37.475Z,22.00
2023-09-10T12:33:06.507Z,21.67
2023-09-10T12:35:35.435Z,22.10
2023-09-10T12:38:03.797Z,25.38
2023-09-10T12:40:35.498Z,20.60
2023-09-10T12:43:05.022Z,24.92
2023-09-10T12:45:33.071Z,22.20
2023-09-10T12:48:01.364Z,21.98
2023-09-10T12:50:29.718Z,15.63
2023-09-10T12:52:59.917Z,13.95
2023-09-10T12:55:30.564Z,18.88
2023-09-10T12:57:59.113Z,15.00
2023-09-10T13:00:28.484Z,17.80
2023-09-10T13:02:56.602Z,18.25
2023-09-10T13:05:24.580Z,14.05
2023-09-10T13:07:52.806Z,15.77
2023-09-10T13:10:21.147Z,18.00
2023-09-10T13:12:49.170Z,12.75
2023-09-10T13:15:17.265Z,19.10
2023-09-10T13:17:46.690Z,12.45
2023-09-10T13:20:15.818Z,19.05
2023-09-10T13:22:45.337Z,14.07
2023-09-10T13:25:13.427Z,13.65
2023-09-10T13:27:41.337Z,17.05
2023-09-10T13:30:10.396Z,18.98
2023-09-10T13:32:38.292Z,14.73
2023-09-10T13:35:09.867Z,13.75
2023-09-10T13:37:42.349Z,11.35
2023-09-10T13:40:12.027Z,18.63
2023-09-10T13:42:42.224Z,15.70
2023-09-10T13:45:11.152Z,18.23
2023-09-10T13:47:39.250Z,15.40
2023-09-10T13:50:12.652Z,15.73
2023-09-10T13:52:41.496Z,19.15
2023-09-10T13:55:10.566Z,17.27
2023-09-10T13:57:38.768Z,15.80
2023-09-10T14:00:09.262Z,15.93
2023-09-10T14:02:37.416Z,17.75
2023-09-10T14:05:08.231Z,16.25
2023-09-10T14:07:37.724Z,12.93
2023-09-10T14:10:07.046Z,19.92
2023-09-10T14:12:35.186Z,13.70
2023-09-10T14:15:03.608Z,15.88
2023-09-10T14:17:31.528Z,18.17
2023-09-10T14:19:59.554Z,18.45
2023-09-10T14:22:27.559Z,14.02
2023-09-10T14:24:56.897Z,12.73
2023-09-10T14:27:24.839Z,13.10
2023-09-10T14:29:53.089Z,21.45
2023-09-10T14:32:21.030Z,15.13
2023-09-10T14:34:49.055Z,16.58
2023-09-10T14:37:16.955Z,16.02
2023-09-10T14:39:44.823Z,16.10
2023-09-10T14:42:14.215Z,16.73
2023-09-10T14:44:42.260Z,19.95
2023-09-10T14:47:10.319Z,15.05
2023-09-10T14:49:38.235Z,19.20
2023-09-10T14:52:06.504Z,18.08
2023-09-10T14:54:34.584Z,14.95
2023-09-10T14:57:02.714Z,19.95
2023-09-10T14:59:32.331Z,19.50
2023-09-10T15:02:02.694Z,15.10
2023-09-10T15:04:30.812Z,15.25
2023-09-10T15:06:58.968Z,14.75
2023-09-10T15:09:27.794Z,16.95
2023-09-10T15:11:55.697Z,17.75
2023-09-10T15:14:24.126Z,20.42
2023-09-10T15:16:54.784Z,11.88
2023-09-10T15:19:24.974Z,15.27
2023-09-10T15:21:53.528Z,18.02
2023-09-10T15:24:21.413Z,14.07
2023-09-10T15:26:49.372Z,18.98
2023-09-10T15:29:17.326Z,17.98
2023-09-10T15:31:47.333Z,16.27
2023-09-10T15:34:16.959Z,18.23
2023-09-10T15:36:44.915Z,16.98
2023-09-10T15:39:13.172Z,13.23
2023-09-10T15:41:43.979Z,13.80
2023-09-10T15:44:12.037Z,15.25
2023-09-10T15:46:40.193Z,13.82
2023-09-10T15:49:08.279Z,16.52
2023-09-10T15:51:37.747Z,22.90
2023-09-10T15:54:05.724Z,19.73
2023-09-10T15:56:33.790Z,15.75
2023-09-10T15:59:01.789Z,17.27
2023-09-10T16:01:30.043Z,12.90
2023-09-10T16:03:58.097Z,13.70
2023-09-10T16:06:26.193Z,17.98
2023-09-10T16:08:55.890Z,15.35
2023-09-10T16:11:24.105Z,17.95
2023-09-10T16:13:52.014Z,13.27
2023-09-10T16:16:20.234Z,14.95
2023-09-10T16:18:48.260Z,14.75
2023-09-10T16:21:16.218Z,18.10
2023-09-10T16:23:44.206Z,13.05
2023-09-10T16:26:13.771Z,16.08
2023-09-10T16:28:42.078Z,16.30
2023-09-10T16:31:11.419Z,16.58
2023-09-10T16:33:39.646Z,20.77
2023-09-10T16:36:07.825Z,14.77
2023-09-10T16:38:35.781Z,14.85
2023-09-10T16:41:03.774Z,17.05
2023-09-10T16:43:33.100Z,18.05
2023-09-10T16:46:01.193Z,17.33
2023-09-10T16:48:29.197Z,15.07
2023-09-10T16:50:58.020Z,17.13
2023-09-10T16:53:26.814Z,18.25
2023-09-10T16:55:55.097Z,19.42
2023-09-10T16:58:23.737Z,21.95
2023-09-10T17:00:53.115Z,21.13
2023-09-10T17:03:21.234Z,20.05
2023-09-10T17:05:49.139Z,22.17
2023-09-10T17:08:17.344Z,19.42
2023-09-10T17:10:45.416Z,19.23
2023-09-10T17:13:15.775Z,16.92
2023-09-10T17:15:44.841Z,19.80
2023-09-10T17:18:14.164Z,17.15
2023-09-10T17:20:43.022Z,21.20
2023-09-10T17:23:11.532Z,20.50
2023-09-10T17:25:39.517Z,20.42
2023-09-10T17:28:07.377Z,16.25
2023-09-10T17:30:36.115Z,16.20
2023-09-10T17:33:04.655Z,15.48
2023-09-10T17:35:34.293Z,17.50
2023-09-10T17:38:02.375Z,18.02
2023-09-10T17:40:30.296Z,18.92
2023-09-10T17:42:58.285Z,19.52
2023-09-10T17:45:28.604Z,17.35
2023-09-10T17:47:56.898Z,17.55
2023-09-10T17:50:25.528Z,18.13
2023-09-10T17:52:55.119Z,19.25
2023-09-10T17:55:23.039Z,16.85
2023-09-10T17:57:50.879Z,19.67
2023-09-10T18:00:19.012Z,17.23
2023-09-10T18:02:47.301Z,19.17
2023-09-10T18:05:15.630Z,16.80
2023-09-10T18:07:43.872Z,19.48
2023-09-10T18:10:13.193Z,19.20
2023-09-10T18:12:41.106Z,20.98
2023-09-10T18:15:09.688Z,19.90
2023-09-10T18:17:38.369Z,20.92
2023-09-10T18:20:08.176Z,17.25
2023-09-10T18:22:36.768Z,18.92
2023-09-10T18:25:05.262Z,16.83
2023-09-10T18:27:34.609Z,22.42
2023-09-10T18:30:02.681Z,21.13
2023-09-10T18:32:31.582Z,20.90
2023-09-10T18:34:59.456Z,18.95
2023-09-10T18:37:27.380Z,22.55
2023-09-10T18:39:55.436Z,20.13
2023-09-10T18:42:23.356Z,18.88
2023-09-10T18:44:52.636Z,20.15
2023-09-10T18:47:20.681Z,17.98
2023-09-10T18:49:48.816Z,20.30
2023-09-10T18:52:18.791Z,23.13
2023-09-10T18:54:47.057Z,22.15
2023-09-10T18:57:15.336Z,18.52
2023-09-10T18:59:44.437Z,23.73
2023-09-10T19:02:13.882Z,18.20
2023-09-10T19:04:42.189Z,16.55
2023-09-10T19:07:11.258Z,21.52
2023-09-10T19:09:39.508Z,19.20
2023-09-10T19:12:08.338Z,24.85
2023-09-10T19:14:36.187Z,19.13
2023-09-10T19:17:04.694Z,18.00
2023-09-10T19:19:33.982Z,18.10
2023-09-10T19:22:01.981Z,18.00
2023-09-10T19:24:29.989Z,15.43
2023-09-10T19:26:58.049Z,21.73
2023-09-10T19:29:26.213Z,17.70
2023-09-10T19:31:56.846Z,21.55
2023-09-10T19:34:25.098Z,18.10
2023-09-10T19:36:54.325Z,23.13
2023-09-10T19:39:27.929Z,25.52
2023-09-10T19:41:56.265Z,19.50
2023-09-10T19:44:24.255Z,19.83
2023-09-10T19:46:52.438Z,19.35
2023-09-10T19:49:20.418Z,19.55
2023-09-10T19:51:52.851Z,18.70
2023-09-10T19:54:22.118Z,21.50
2023-09-10T19:56:50.099Z,18.98
2023-09-10T19:59:18.231Z,23.52
2023-09-10T20:01:46.266Z,19.88
2023-09-10T20:04:15.054Z,18.05
2023-09-10T20:06:43.361Z,17.75
2023-09-10T20:09:11.677Z,21.25
2023-09-10T20:11:41.044Z,18.67
2023-09-10T20:14:09.689Z,18.02
2023-09-10T20:16:37.617Z,21.48
2023-09-10T20:19:05.466Z,19.35
2023-09-10T20:21:33.513Z,20.13
2023-09-10T20:24:01.497Z,21.58
2023-09-10T20:26:31.391Z,20.33
2023-09-10T20:29:01.025Z,21.13
2023-09-10T20:31:30.196Z,18.20
2023-09-10T20:33:58.090Z,20.67
2023-09-10T20:36:26.169Z,23.83
2023-09-10T20:38:54.106Z,21.23
2023-09-10T20:41:22.640Z,23.63
2023-09-10T20:43:50.595Z,19.15
2023-09-10T20:46:20.511Z,18.73
2023-09-10T20:48:48.452Z,21.02
2023-09-10T20:51:28.339Z,18.73
2023-09-10T20:53:56.336Z,26.02
2023-09-10T20:56:24.383Z,23.88
2023-09-10T20:58:52.482Z,25.27
2023-09-10T21:01:21.800Z,21.73
2023-09-10T21:03:50.005Z,20.80
2023-09-10T21:06:18.732Z,20.70
2023-09-10T21:08:46.817Z,19.73
2023-09-10T21:11:14.828Z,23.17
2023-09-10T21:13:43.246Z,19.33
2023-09-10T21:16:12.706Z,22.48
2023-09-10T21:18:41.932Z,19.23
2023-09-10T21:21:09.978Z,20.55
2023-09-10T21:23:38.289Z,20.73
2023-09-10T21:26:07.345Z,23.27
2023-09-10T21:28:35.227Z,19.83
2023-09-10T21:31:03.586Z,27.25
2023-09-10T21:33:31.581Z,24.60
2023-09-10T21:36:01.050Z,21.13
2023-09-10T21:38:28.936Z,29.08
2023-09-10T21:40:57.167Z,23.60
2023-09-10T21:43:25.183Z,23.38
2023-09-10T21:45:54.860Z,22.98
2023-09-10T21:48:22.872Z,23.08
2023-09-10T21:50:50.933Z,20.75
2023-09-10T21:53:20.288Z,20.58
2023-09-10T21:55:48.244Z,20.23
2023-09-10T21:58:16.394Z,19.48
2023-09-10T22:00:44.362Z,17.55
2023-09-10T22:03:12.426Z,23.40
2023-09-10T22:05:42.876Z,22.88
2023-09-10T22:08:12.664Z,21.48
2023-09-10T22:10:41.867Z,20.40
2023-09-10T22:13:18.168Z,23.70
2023-09-10T22:15:46.572Z,24.77
2023-09-10T22:18:14.574Z,21.55
2023-09-10T22:20:42.734Z,27.75
2023-09-10T22:23:10.771Z,32.28
2023-09-10T22:25:38.696Z,23.85
2023-09-10T22:28:08.014Z,20.33
2023-09-10T22:30:35.858Z,26.23
2023-09-10T22:33:04.278Z,21.33
2023-09-10T22:35:32.324Z,20.05
2023-09-10T22:38:02.072Z,21.13
2023-09-10T22:40:29.920Z,22.60
2023-09-10T22:42:57.816Z,23.08
2023-09-10T22:45:27.197Z,23.05
2023-09-10T22:47:55.286Z,24.33
2023-09-10T22:50:23.353Z,21.42
2023-09-10T22:52:51.398Z,22.98
2023-09-10T22:55:19.306Z,25.38
2023-09-10T22:57:47.405Z,25.27
2023-09-10T23:00:16.079Z,24.40
2023-09-10T23:02:45.317Z,25.70
2023-09-10T23:05:13.346Z,20.58
2023-09-10T23:07:41.311Z,21.27
2023-09-10T23:10:21.137Z,23.42
2023-09-10T23:12:53.368Z,17.45
2023-09-10T23:15:21.536Z,24.13
2023-09-10T23:17:50.991Z,26.75
2023-09-10T23:20:19.427Z,22.98
2023-09-10T23:22:47.312Z,22.95
2023-09-10T23:25:15.126Z,20.20
2023-09-10T23:27:42.990Z,25.70
2023-09-10T23:30:12.483Z,27.33
2023-09-10T23:32:40.547Z,26.58
2023-09-10T23:35:10.163Z,25.70
2023-09-10T23:37:38.200Z,23.45
2023-09-10T23:40:07.561Z,24.25
2023-09-10T23:42:35.505Z,21.70
2023-09-10T23:45:03.774Z,21.25
2023-09-10T23:47:31.822Z,26.15
2023-09-10T23:49:59.852Z,25.35
2023-09-10T23:52:29.018Z,24.10
2023-09-10T23:54:56.888Z,22.63
2023-09-10T23:57:25.104Z,23.15
2023-09-10T23:59:53.408Z,27.92
